createdAt,value
2023-02-14T00:00:08.446Z,99.99
2023-02-14T00:01:08.424Z,99.99
2023-02-14T00:02:08.721Z,99.99
2023-02-14T00:03:08.471Z,99.80
2023-02-14T00:04:08.422Z,99.70
2023-02-14T00:05:08.393Z,99.80
2023-02-14T00:06:08.384Z,99.99
2023-02-14T00:07:08.751Z,99.91
2023-02-14T00:08:08.356Z,99.91
2023-02-14T00:09:08.346Z,99.99
2023-02-14T00:10:08.350Z,99.99
2023-02-14T00:11:08.335Z,99.99
2023-02-14T00:12:08.658Z,99.91
2023-02-14T00:13:08.315Z,99.59
2023-02-14T00:14:08.306Z,99.49
2023-02-14T00:15:08.290Z,99.18
2023-02-14T00:16:08.321Z,99.01
2023-02-14T00:17:08.582Z,98.91
2023-02-14T00:18:08.264Z,99.11
2023-02-14T00:19:08.262Z,99.64
2023-02-14T00:20:08.247Z,99.99
2023-02-14T00:21:08.234Z,99.99
2023-02-14T00:22:08.241Z,99.99
2023-02-14T00:23:08.210Z,99.99
2023-02-14T00:24:08.213Z,99.99
2023-02-14T00:25:08.189Z,99.99
2023-02-14T00:26:08.185Z,99.99
2023-02-14T00:27:09.082Z,99.99
2023-02-14T00:28:08.171Z,99.99
2023-02-14T00:29:08.157Z,99.99
2023-02-14T00:30:08.190Z,99.99
2023-02-14T00:31:08.348Z,99.99
2023-02-14T00:32:08.949Z,99.99
2023-02-14T00:33:08.113Z,99.99
2023-02-14T00:34:08.103Z,99.99
2023-02-14T00:35:08.094Z,99.99
2023-02-14T00:36:08.092Z,99.99
2023-02-14T00:37:08.073Z,99.99
2023-02-14T00:38:08.082Z,99.99
2023-02-14T00:39:08.493Z,99.99
2023-02-14T00:40:08.064Z,99.99
2023-02-14T00:41:08.029Z,99.94
2023-02-14T00:42:08.036Z,99.99
2023-02-14T00:43:08.018Z,99.99
2023-02-14T00:44:08.012Z,99.99
2023-02-14T00:45:07.994Z,99.99
2023-02-14T00:46:08.014Z,99.99
2023-02-14T00:47:07.970Z,99.99
2023-02-14T00:48:07.980Z,99.99
2023-02-14T00:49:07.954Z,99.99
2023-02-14T00:50:07.945Z,99.99
2023-02-14T00:51:07.933Z,99.99
2023-02-14T00:52:07.929Z,99.99
2023-02-14T00:53:07.921Z,99.99
2023-02-14T00:54:07.905Z,99.99
2023-02-14T00:55:07.918Z,99.99
2023-02-14T00:56:07.896Z,99.99
2023-02-14T00:57:07.875Z,99.99
2023-02-14T00:58:07.872Z,99.99
2023-02-14T00:59:07.858Z,99.99
2023-02-14T01:00:07.843Z,99.99
2023-02-14T01:01:07.868Z,99.99
2023-02-14T01:02:07.910Z,99.99
2023-02-14T01:03:07.828Z,99.99
2023-02-14T01:04:07.816Z,99.99
2023-02-14T01:05:07.805Z,99.99
2023-02-14T01:06:07.813Z,99.99
2023-02-14T01:07:07.780Z,99.99
2023-02-14T01:08:07.795Z,99.99
2023-02-14T01:09:07.755Z,99.99
2023-02-14T01:10:07.752Z,99.99
2023-02-14T01:11:07.735Z,99.99
2023-02-14T01:12:07.731Z,99.99
2023-02-14T01:13:07.746Z,99.99
2023-02-14T01:14:07.705Z,99.99
2023-02-14T01:15:07.697Z,99.99
2023-02-14T01:16:07.759Z,99.99
2023-02-14T01:17:07.685Z,99.99
2023-02-14T01:18:07.671Z,99.99
2023-02-14T01:19:07.653Z,99.99
2023-02-14T01:20:07.648Z,99.99
2023-02-14T01:21:07.636Z,99.99
2023-02-14T01:22:07.629Z,99.99
2023-02-14T01:23:07.719Z,99.99
2023-02-14T01:24:07.613Z,99.99
2023-02-14T01:25:07.607Z,99.99
2023-02-14T01:26:07.597Z,99.99
2023-02-14T01:27:07.592Z,99.99
2023-02-14T01:28:07.571Z,99.99
2023-02-14T01:29:07.564Z,99.99
2023-02-14T01:30:07.645Z,99.99
2023-02-14T01:31:07.570Z,99.99
2023-02-14T01:32:07.655Z,99.99
2023-02-14T01:33:07.514Z,99.99
2023-02-14T01:34:07.522Z,99.99
2023-02-14T01:35:07.509Z,99.99
2023-02-14T01:36:07.507Z,99.99
2023-02-14T01:37:07.500Z,99.99
2023-02-14T01:38:07.480Z,99.99
2023-02-14T01:39:07.462Z,99.99
2023-02-14T01:40:07.453Z,99.99
2023-02-14T01:41:07.439Z,99.99
2023-02-14T01:42:07.439Z,99.99
2023-02-14T01:43:07.427Z,99.99
2023-02-14T01:44:07.430Z,99.99
2023-02-14T01:45:07.408Z,99.99
2023-02-14T01:46:07.507Z,99.99
2023-02-14T01:47:07.376Z,99.99
2023-02-14T01:48:07.392Z,99.99
2023-02-14T01:49:07.365Z,99.99
2023-02-14T01:50:07.360Z,99.99
2023-02-14T01:51:07.338Z,99.99
2023-02-14T01:52:07.342Z,99.99
2023-02-14T01:53:07.579Z,99.99
2023-02-14T01:54:07.317Z,99.99
2023-02-14T01:55:07.309Z,99.99
2023-02-14T01:56:07.304Z,99.99
2023-02-14T01:57:07.280Z,99.99
2023-02-14T01:58:07.282Z,99.99
2023-02-14T01:59:07.265Z,99.99
2023-02-14T02:00:07.263Z,99.99
2023-02-14T02:01:07.255Z,99.99
2023-02-14T02:02:07.260Z,99.99
2023-02-14T02:03:07.222Z,99.99
2023-02-14T02:04:07.233Z,99.99
2023-02-14T02:05:07.197Z,99.99
2023-02-14T02:06:07.195Z,99.99
2023-02-14T02:07:07.189Z,99.99
2023-02-14T02:08:07.176Z,99.99
2023-02-14T02:09:07.160Z,99.99
2023-02-14T02:10:07.160Z,99.99
2023-02-14T02:11:07.153Z,99.99
2023-02-14T02:12:07.144Z,99.99
2023-02-14T02:13:07.127Z,99.99
2023-02-14T02:14:07.120Z,99.99
2023-02-14T02:15:07.113Z,99.99
2023-02-14T02:16:07.093Z,99.99
2023-02-14T02:17:07.084Z,99.99
2023-02-14T02:18:07.085Z,99.99
2023-02-14T02:19:07.068Z,99.99
2023-02-14T02:20:07.073Z,99.99
2023-02-14T02:21:07.055Z,99.99
2023-02-14T02:22:07.040Z,99.99
2023-02-14T02:23:07.032Z,99.99
2023-02-14T02:24:07.021Z,99.99
2023-02-14T02:25:07.004Z,99.99
2023-02-14T02:26:06.994Z,99.99
2023-02-14T02:27:08.480Z,99.99
2023-02-14T02:28:06.980Z,99.99
2023-02-14T02:29:06.958Z,99.99
2023-02-14T02:30:06.972Z,99.99
2023-02-14T02:31:07.016Z,99.99
2023-02-14T02:32:07.124Z,99.99
2023-02-14T02:33:06.984Z,99.99
2023-02-14T02:34:06.920Z,99.99
2023-02-14T02:35:06.909Z,99.99
2023-02-14T02:36:06.897Z,99.99
2023-02-14T02:37:06.883Z,99.99
2023-02-14T02:38:06.884Z,99.99
2023-02-14T02:39:06.872Z,99.99
2023-02-14T02:40:06.862Z,99.99
2023-02-14T02:41:06.847Z,99.99
2023-02-14T02:42:06.863Z,99.99
2023-02-14T02:43:06.864Z,99.99
2023-02-14T02:44:06.832Z,99.99
2023-02-14T02:45:06.804Z,99.99
2023-02-14T02:46:06.811Z,99.99
2023-02-14T02:47:06.793Z,99.99
2023-02-14T02:48:06.780Z,99.99
2023-02-14T02:49:06.776Z,99.99
2023-02-14T02:50:06.763Z,99.99
2023-02-14T02:51:06.747Z,99.99
2023-02-14T02:52:06.748Z,99.99
2023-02-14T02:53:07.056Z,99.99
2023-02-14T02:54:06.719Z,99.99
2023-02-14T02:55:06.702Z,99.99
2023-02-14T02:56:06.703Z,99.99
2023-02-14T02:57:06.688Z,99.99
2023-02-14T02:58:07.150Z,99.99
2023-02-14T02:59:06.682Z,99.99
2023-02-14T03:00:06.675Z,99.99
2023-02-14T03:01:06.645Z,99.87
2023-02-14T03:02:06.648Z,99.80
2023-02-14T03:03:07.014Z,99.99
2023-02-14T03:04:06.629Z,99.99
2023-02-14T03:05:06.700Z,99.99
2023-02-14T03:06:06.595Z,99.99
2023-02-14T03:07:06.582Z,99.99
2023-02-14T03:08:06.600Z,99.99
2023-02-14T03:09:06.578Z,99.99
2023-02-14T03:10:06.554Z,99.99
2023-02-14T03:11:06.554Z,99.99
2023-02-14T03:12:06.534Z,99.99
2023-02-14T03:13:06.793Z,99.99
2023-02-14T03:14:06.524Z,99.99
2023-02-14T03:15:06.502Z,99.99
2023-02-14T03:16:06.519Z,99.99
2023-02-14T03:17:06.483Z,99.99
2023-02-14T03:18:06.802Z,99.99
2023-02-14T03:19:06.470Z,99.99
2023-02-14T03:20:06.458Z,99.99
2023-02-14T03:21:06.454Z,99.99
2023-02-14T03:22:06.447Z,99.99
2023-02-14T03:23:06.423Z,99.99
2023-02-14T03:24:06.437Z,99.99
2023-02-14T03:25:06.420Z,99.99
2023-02-14T03:26:06.399Z,99.90
2023-02-14T03:27:06.407Z,99.99
2023-02-14T03:28:06.374Z,99.99
2023-02-14T03:29:06.387Z,99.99
2023-02-14T03:30:06.397Z,99.99
2023-02-14T03:31:06.426Z,99.99
2023-02-14T03:32:06.456Z,99.99
2023-02-14T03:33:06.333Z,99.99
2023-02-14T03:34:06.325Z,99.99
2023-02-14T03:35:06.310Z,99.99
2023-02-14T03:36:06.305Z,99.99
2023-02-14T03:37:06.288Z,99.99
2023-02-14T03:38:06.285Z,99.99
2023-02-14T03:39:06.273Z,99.99
2023-02-14T03:40:06.266Z,99.99
2023-02-14T03:41:06.250Z,99.99
2023-02-14T03:42:06.472Z,99.99
2023-02-14T03:43:06.241Z,99.99
2023-02-14T03:44:06.234Z,99.99
2023-02-14T03:45:06.253Z,99.99
2023-02-14T03:46:06.232Z,99.99
2023-02-14T03:47:06.233Z,99.99
2023-02-14T03:48:06.181Z,99.99
2023-02-14T03:49:06.179Z,99.99
2023-02-14T03:50:06.184Z,99.99
2023-02-14T03:51:06.156Z,99.99
2023-02-14T03:52:06.151Z,99.95
2023-02-14T03:53:06.150Z,99.73
2023-02-14T03:54:06.125Z,99.63
2023-02-14T03:55:06.104Z,99.63
2023-02-14T03:56:06.102Z,99.73
2023-02-14T03:57:06.098Z,99.95
2023-02-14T03:58:06.074Z,99.99
2023-02-14T03:59:06.114Z,99.99
2023-02-14T04:00:06.068Z,99.99
2023-02-14T04:01:06.050Z,99.99
2023-02-14T04:02:06.043Z,99.99
2023-02-14T04:03:06.039Z,99.99
2023-02-14T04:04:06.024Z,99.99
2023-02-14T04:05:06.029Z,99.99
2023-02-14T04:06:06.008Z,99.99
2023-02-14T04:07:05.991Z,99.99
2023-02-14T04:08:05.979Z,99.99
2023-02-14T04:09:05.997Z,99.99
2023-02-14T04:10:05.955Z,99.99
2023-02-14T04:11:05.954Z,99.99
2023-02-14T04:12:05.942Z,99.99
2023-02-14T04:13:05.941Z,99.99
2023-02-14T04:14:05.945Z,99.99
2023-02-14T04:15:05.911Z,99.99
2023-02-14T04:16:05.934Z,99.99
2023-02-14T04:17:05.900Z,99.99
2023-02-14T04:18:05.877Z,99.99
2023-02-14T04:19:05.884Z,99.99
2023-02-14T04:20:05.869Z,99.99
2023-02-14T04:21:05.855Z,99.99
2023-02-14T04:22:05.838Z,99.99
2023-02-14T04:23:05.842Z,99.99
2023-02-14T04:24:05.841Z,99.99
2023-02-14T04:25:05.818Z,99.99
2023-02-14T04:26:05.816Z,99.99
2023-02-14T04:27:05.804Z,99.99
2023-02-14T04:28:05.791Z,99.99
2023-02-14T04:29:05.998Z,99.99
2023-02-14T04:30:05.821Z,99.99
2023-02-14T04:31:05.874Z,99.99
2023-02-14T04:32:05.871Z,99.99
2023-02-14T04:33:05.734Z,99.99
2023-02-14T04:34:05.730Z,99.99
2023-02-14T04:35:05.739Z,99.99
2023-02-14T04:36:05.700Z,99.99
2023-02-14T04:37:05.706Z,99.99
2023-02-14T04:38:05.693Z,99.99
2023-02-14T04:39:05.678Z,99.99
2023-02-14T04:40:05.670Z,99.99
2023-02-14T04:41:05.652Z,99.99
2023-02-14T04:42:05.641Z,99.99
2023-02-14T04:43:05.630Z,99.99
2023-02-14T04:44:05.628Z,99.99
2023-02-14T04:45:05.627Z,99.99
2023-02-14T04:46:05.610Z,99.99
2023-02-14T04:47:05.604Z,99.99
2023-02-14T04:48:05.596Z,99.99
2023-02-14T04:49:05.578Z,99.99
2023-02-14T04:50:05.558Z,99.99
2023-02-14T04:51:05.567Z,99.99
2023-02-14T04:52:05.570Z,99.99
2023-02-14T04:53:05.535Z,99.99
2023-02-14T04:54:05.528Z,99.99
2023-02-14T04:55:05.530Z,99.99
2023-02-14T04:56:05.499Z,99.99
2023-02-14T04:57:05.503Z,99.99
2023-02-14T04:58:05.484Z,99.99
2023-02-14T04:59:05.479Z,99.99
2023-02-14T05:00:05.463Z,99.99
2023-02-14T05:01:05.505Z,99.99
2023-02-14T05:02:05.511Z,99.99
2023-02-14T05:03:05.437Z,99.99
2023-02-14T05:04:05.429Z,99.99
2023-02-14T05:05:05.417Z,99.99
2023-02-14T05:06:05.415Z,99.99
2023-02-14T05:07:05.418Z,99.99
2023-02-14T05:08:05.405Z,99.99
2023-02-14T05:09:05.385Z,99.99
2023-02-14T05:10:05.360Z,99.99
2023-02-14T05:11:05.311Z,99.99
2023-02-14T05:12:05.294Z,99.99
2023-02-14T05:13:05.292Z,99.99
2023-02-14T05:14:05.275Z,99.99
2023-02-14T05:15:05.269Z,99.99
2023-02-14T05:16:05.274Z,99.99
2023-02-14T05:17:05.247Z,99.99
2023-02-14T05:18:05.229Z,99.99
2023-02-14T05:19:05.234Z,99.99
2023-02-14T05:20:05.216Z,99.99
2023-02-14T05:21:05.201Z,99.99
2023-02-14T05:22:05.191Z,99.99
2023-02-14T05:23:05.225Z,99.99
2023-02-14T05:24:05.184Z,99.99
2023-02-14T05:25:05.177Z,99.99
2023-02-14T05:26:05.166Z,99.99
2023-02-14T05:27:05.143Z,99.99
2023-02-14T05:28:05.153Z,99.99
2023-02-14T05:29:05.130Z,99.99
2023-02-14T05:30:05.203Z,99.99
2023-02-14T05:31:05.158Z,99.99
2023-02-14T05:32:05.154Z,99.99
2023-02-14T05:33:05.083Z,99.99
2023-02-14T05:34:05.077Z,99.99
2023-02-14T05:35:05.074Z,99.99
2023-02-14T05:36:05.061Z,99.99
2023-02-14T05:37:05.056Z,99.99
2023-02-14T05:38:05.038Z,99.99
2023-02-14T05:39:05.037Z,99.99
2023-02-14T05:40:05.008Z,99.99
2023-02-14T05:41:05.028Z,99.99
2023-02-14T05:42:05.059Z,99.99
2023-02-14T05:43:05.061Z,99.99
2023-02-14T05:44:05.038Z,99.99
2023-02-14T05:45:05.020Z,99.99
2023-02-14T05:46:05.061Z,99.99
2023-02-14T05:47:04.997Z,99.99
2023-02-14T05:48:04.993Z,99.99
2023-02-14T05:49:05.044Z,99.99
2023-02-14T05:50:04.991Z,99.99
2023-02-14T05:51:04.974Z,99.99
2023-02-14T05:52:04.958Z,99.99
2023-02-14T05:53:04.943Z,99.99
2023-02-14T05:54:04.936Z,99.99
2023-02-14T05:55:04.942Z,99.99
2023-02-14T05:56:04.940Z,99.99
2023-02-14T05:57:04.862Z,99.99
2023-02-14T05:58:04.841Z,99.99
2023-02-14T05:59:04.830Z,99.99
2023-02-14T06:00:04.825Z,99.99
2023-02-14T06:01:04.892Z,99.99
2023-02-14T06:02:04.886Z,99.99
2023-02-14T06:03:04.851Z,99.99
2023-02-14T06:04:04.864Z,99.99
2023-02-14T06:05:04.830Z,99.99
2023-02-14T06:06:04.787Z,99.99
2023-02-14T06:07:04.769Z,99.99
2023-02-14T06:08:04.736Z,99.99
2023-02-14T06:09:04.747Z,99.99
2023-02-14T06:10:04.734Z,99.99
2023-02-14T06:11:04.722Z,99.99
2023-02-14T06:12:04.757Z,99.99
2023-02-14T06:13:04.755Z,99.99
2023-02-14T06:14:04.709Z,99.99
2023-02-14T06:15:04.673Z,99.99
2023-02-14T06:16:04.701Z,99.99
2023-02-14T06:17:04.730Z,99.99
2023-02-14T06:18:04.662Z,99.99
2023-02-14T06:19:05.112Z,99.99
2023-02-14T06:20:04.620Z,99.99
2023-02-14T06:21:04.633Z,99.99
2023-02-14T06:22:04.626Z,99.99
2023-02-14T06:23:04.606Z,99.99
2023-02-14T06:24:05.410Z,99.99
2023-02-14T06:25:04.579Z,99.99
2023-02-14T06:26:04.566Z,99.99
2023-02-14T06:27:04.557Z,99.99
2023-02-14T06:28:04.533Z,99.99
2023-02-14T06:29:04.563Z,99.99
2023-02-14T06:30:04.568Z,99.99
2023-02-14T06:31:04.992Z,99.99
2023-02-14T06:32:04.664Z,99.99
2023-02-14T06:33:04.502Z,99.99
2023-02-14T06:34:04.487Z,99.99
2023-02-14T06:35:04.484Z,99.99
2023-02-14T06:36:04.461Z,99.99
2023-02-14T06:37:04.460Z,99.99
2023-02-14T06:38:04.449Z,99.99
2023-02-14T06:39:04.444Z,99.99
2023-02-14T06:40:04.457Z,99.99
2023-02-14T06:41:04.792Z,99.99
2023-02-14T06:42:04.405Z,99.99
2023-02-14T06:43:04.394Z,99.99
2023-02-14T06:44:04.389Z,99.99
2023-02-14T06:45:04.389Z,99.99
2023-02-14T06:46:04.427Z,99.99
2023-02-14T06:47:04.369Z,99.99
2023-02-14T06:48:04.342Z,99.99
2023-02-14T06:49:04.334Z,99.99
2023-02-14T06:50:04.349Z,99.99
2023-02-14T06:51:04.318Z,99.99
2023-02-14T06:52:04.311Z,99.99
2023-02-14T06:53:04.300Z,99.99
2023-02-14T06:54:04.290Z,99.99
2023-02-14T06:55:04.290Z,99.99
2023-02-14T06:56:04.270Z,99.99
2023-02-14T06:57:04.281Z,99.99
2023-02-14T06:58:04.248Z,99.99
2023-02-14T06:59:04.253Z,99.99
2023-02-14T07:00:04.275Z,99.99
2023-02-14T07:01:04.295Z,99.99
2023-02-14T07:02:04.216Z,99.99
2023-02-14T07:03:04.248Z,99.99
2023-02-14T07:04:04.186Z,99.99
2023-02-14T07:05:04.187Z,99.99
2023-02-14T07:06:04.168Z,99.99
2023-02-14T07:07:04.166Z,99.99
2023-02-14T07:08:04.202Z,99.99
2023-02-14T07:09:04.148Z,99.99
2023-02-14T07:10:04.137Z,99.99
2023-02-14T07:11:04.124Z,99.99
2023-02-14T07:12:04.120Z,99.99
2023-02-14T07:13:04.111Z,99.99
2023-02-14T07:14:04.084Z,99.99
2023-02-14T07:15:04.099Z,99.99
2023-02-14T07:16:04.097Z,99.99
2023-02-14T07:17:04.064Z,99.99
2023-02-14T07:18:04.059Z,99.99
2023-02-14T07:19:04.047Z,99.99
2023-02-14T07:20:04.036Z,99.99
2023-02-14T07:21:04.024Z,99.99
2023-02-14T07:22:04.014Z,99.99
2023-02-14T07:23:04.014Z,99.99
2023-02-14T07:24:03.993Z,99.99
2023-02-14T07:25:03.984Z,99.99
2023-02-14T07:26:03.969Z,99.99
2023-02-14T07:27:03.960Z,99.99
2023-02-14T07:28:03.949Z,99.99
2023-02-14T07:29:03.954Z,99.99
2023-02-14T07:30:03.960Z,99.99
2023-02-14T07:31:04.436Z,99.99
2023-02-14T07:32:04.134Z,99.99
2023-02-14T07:33:03.898Z,99.99
2023-02-14T07:34:03.889Z,99.99
2023-02-14T07:35:04.166Z,99.99
2023-02-14T07:36:03.886Z,99.99
2023-02-14T07:37:03.879Z,99.99
2023-02-14T07:38:03.856Z,99.99
2023-02-14T07:39:03.856Z,99.99
2023-02-14T07:40:03.841Z,99.99
2023-02-14T07:41:03.832Z,99.99
2023-02-14T07:42:03.805Z,99.99
2023-02-14T07:43:03.800Z,99.99
2023-02-14T07:44:03.794Z,99.99
2023-02-14T07:45:15.883Z,99.99
2023-02-14T07:46:03.836Z,99.99
2023-02-14T07:47:03.771Z,99.99
2023-02-14T07:48:03.762Z,99.99
2023-02-14T07:49:03.741Z,99.99
2023-02-14T07:50:03.753Z,99.99
2023-02-14T07:51:03.931Z,99.99
2023-02-14T07:52:03.713Z,99.99
2023-02-14T07:53:03.731Z,99.99
2023-02-14T07:54:03.683Z,99.99
2023-02-14T07:55:03.699Z,99.99
2023-02-14T07:56:03.665Z,99.99
2023-02-14T07:57:03.665Z,99.99
2023-02-14T07:58:03.651Z,99.99
2023-02-14T07:59:03.644Z,99.99
2023-02-14T08:00:03.643Z,99.99
2023-02-14T08:01:03.613Z,99.99
2023-02-14T08:02:03.734Z,99.99
2023-02-14T08:03:03.607Z,99.99
2023-02-14T08:04:03.622Z,99.99
2023-02-14T08:05:03.666Z,99.99
2023-02-14T08:06:03.573Z,99.99
2023-02-14T08:07:03.556Z,99.99
2023-02-14T08:08:03.553Z,99.99
2023-02-14T08:09:03.550Z,99.99
2023-02-14T08:10:03.544Z,99.99
2023-02-14T08:11:03.641Z,99.99
2023-02-14T08:12:03.517Z,99.99
2023-02-14T08:13:03.560Z,99.99
2023-02-14T08:14:03.494Z,99.99
2023-02-14T08:15:03.498Z,99.99
2023-02-14T08:16:03.548Z,99.99
2023-02-14T08:17:03.461Z,99.99
2023-02-14T08:18:03.459Z,99.99
2023-02-14T08:19:03.430Z,99.99
2023-02-14T08:20:03.452Z,99.99
2023-02-14T08:21:03.419Z,99.99
2023-02-14T08:22:03.416Z,99.99
2023-02-14T08:23:03.399Z,99.99
2023-02-14T08:24:03.391Z,99.99
2023-02-14T08:25:03.377Z,99.99
2023-02-14T08:26:03.364Z,99.99
2023-02-14T08:27:03.368Z,99.99
2023-02-14T08:28:03.342Z,99.99
2023-02-14T08:29:03.332Z,99.99
2023-02-14T08:30:03.378Z,99.99
2023-02-14T08:31:03.733Z,99.99
2023-02-14T08:32:03.442Z,99.99
2023-02-14T08:33:03.296Z,99.99
2023-02-14T08:34:03.291Z,99.99
2023-02-14T08:35:03.273Z,99.99
2023-02-14T08:36:03.276Z,99.99
2023-02-14T08:37:03.253Z,99.99
2023-02-14T08:38:03.266Z,99.99
2023-02-14T08:39:03.247Z,99.99
2023-02-14T08:40:03.539Z,99.99
2023-02-14T08:41:06.651Z,99.99
2023-02-14T08:42:03.201Z,99.99
2023-02-14T08:43:03.200Z,99.99
2023-02-14T08:44:03.190Z,99.99
2023-02-14T08:45:03.195Z,99.99
2023-02-14T08:46:03.447Z,99.99
2023-02-14T08:47:03.231Z,99.99
2023-02-14T08:48:03.179Z,99.99
2023-02-14T08:49:03.153Z,99.99
2023-02-14T08:50:03.152Z,99.99
2023-02-14T08:51:03.235Z,99.99
2023-02-14T08:52:03.114Z,99.99
2023-02-14T08:53:03.105Z,99.99
2023-02-14T08:54:03.090Z,99.92
2023-02-14T08:55:03.399Z,99.92
2023-02-14T08:56:03.094Z,99.98
2023-02-14T08:57:03.048Z,99.88
2023-02-14T08:58:03.040Z,99.88
2023-02-14T08:59:03.035Z,99.77
2023-02-14T09:00:03.425Z,99.77
2023-02-14T09:01:03.418Z,99.66
2023-02-14T09:02:03.039Z,99.35
2023-02-14T09:03:03.066Z,98.89
2023-02-14T09:04:03.092Z,98.58
2023-02-14T09:05:03.304Z,98.68
2023-02-14T09:06:02.965Z,98.79
2023-02-14T09:07:02.964Z,98.79
2023-02-14T09:08:02.949Z,98.79
2023-02-14T09:09:02.948Z,98.95
2023-02-14T09:10:03.766Z,98.95
2023-02-14T09:11:03.168Z,98.85
2023-02-14T09:12:02.913Z,98.85
2023-02-14T09:13:02.912Z,98.95
2023-02-14T09:14:02.896Z,99.22
2023-02-14T09:15:02.901Z,99.11
2023-02-14T09:16:03.034Z,98.80
2023-02-14T09:17:02.956Z,98.07
2023-02-14T09:18:02.865Z,97.55
2023-02-14T09:19:02.851Z,97.65
2023-02-14T09:20:02.835Z,97.86
2023-02-14T09:21:03.106Z,97.61
2023-02-14T09:22:02.824Z,97.61
2023-02-14T09:23:02.800Z,97.50
2023-02-14T09:24:02.790Z,98.02
2023-02-14T09:25:02.775Z,98.13
2023-02-14T09:26:02.778Z,98.23
2023-02-14T09:27:02.790Z,98.82
2023-02-14T09:28:03.030Z,99.02
2023-02-14T09:29:02.736Z,98.60
2023-02-14T09:30:02.793Z,97.14
2023-02-14T09:31:02.970Z,95.95
2023-02-14T09:32:02.864Z,96.26
2023-02-14T09:33:02.699Z,96.06
2023-02-14T09:34:02.718Z,96.06
2023-02-14T09:35:02.689Z,95.60
2023-02-14T09:36:02.697Z,94.87
2023-02-14T09:37:03.887Z,93.73
2023-02-14T09:38:02.655Z,93.87
2023-02-14T09:39:02.636Z,94.14
2023-02-14T09:40:02.636Z,94.35
2023-02-14T09:41:02.707Z,94.45
2023-02-14T09:42:02.608Z,94.62
2023-02-14T09:43:02.597Z,94.51
2023-02-14T09:44:02.587Z,93.48
2023-02-14T09:45:02.594Z,93.01
2023-02-14T09:46:02.615Z,92.18
2023-02-14T09:47:02.542Z,92.29
2023-02-14T09:48:02.557Z,92.70
2023-02-14T09:49:02.559Z,92.60
2023-02-14T09:50:02.585Z,92.66
2023-02-14T09:51:02.704Z,93.49
2023-02-14T09:52:02.510Z,93.60
2023-02-14T09:53:02.490Z,92.93
2023-02-14T09:54:02.477Z,93.24
2023-02-14T09:55:02.467Z,93.41
2023-02-14T09:56:02.480Z,93.62
2023-02-14T09:57:02.446Z,91.80
2023-02-14T09:58:02.449Z,90.14
2023-02-14T09:59:02.458Z,89.73
2023-02-14T10:00:02.429Z,90.25
2023-02-14T10:01:02.740Z,90.25
2023-02-14T10:02:02.456Z,88.34
2023-02-14T10:03:02.393Z,87.65
2023-02-14T10:04:02.376Z,88.73
2023-02-14T10:05:02.371Z,91.33
2023-02-14T10:06:02.363Z,92.26
2023-02-14T10:07:02.354Z,91.22
2023-02-14T10:08:02.350Z,90.81
2023-02-14T10:09:02.324Z,90.50
2023-02-14T10:10:02.325Z,90.14
2023-02-14T10:11:02.425Z,89.67
2023-02-14T10:12:02.300Z,90.56
2023-02-14T10:13:02.289Z,89.83
2023-02-14T10:14:02.288Z,90.77
2023-02-14T10:15:02.284Z,91.70
2023-02-14T10:16:02.268Z,91.55
2023-02-14T10:17:02.248Z,91.10
2023-02-14T10:18:02.244Z,89.98
2023-02-14T10:19:02.246Z,87.14
2023-02-14T10:20:02.261Z,87.93
2023-02-14T10:21:02.652Z,86.27
2023-02-14T10:22:02.203Z,85.03
2023-02-14T10:23:02.179Z,85.19
2023-02-14T10:24:02.171Z,85.82
2023-02-14T10:25:02.166Z,83.68
2023-02-14T10:26:02.185Z,85.42
2023-02-14T10:27:02.147Z,88.94
2023-02-14T10:28:02.140Z,88.84
2023-02-14T10:29:02.135Z,89.00
2023-02-14T10:30:02.165Z,90.10
2023-02-14T10:31:02.461Z,89.44
2023-02-14T10:32:02.172Z,85.16
2023-02-14T10:33:02.076Z,84.53
2023-02-14T10:34:02.080Z,85.16
2023-02-14T10:35:02.065Z,85.16
2023-02-14T10:36:02.071Z,87.49
2023-02-14T10:37:02.044Z,87.35
2023-02-14T10:38:02.146Z,83.28
2023-02-14T10:39:02.025Z,80.70
2023-02-14T10:40:02.032Z,81.73
2023-02-14T10:41:02.171Z,82.25
2023-02-14T10:42:01.995Z,80.97
2023-02-14T10:43:01.991Z,80.87
2023-02-14T10:44:01.970Z,80.93
2023-02-14T10:45:01.959Z,79.90
2023-02-14T10:46:02.034Z,78.42
2023-02-14T10:47:01.939Z,78.97
2023-02-14T10:48:01.947Z,81.14
2023-02-14T10:49:01.914Z,79.49
2023-02-14T10:50:01.921Z,79.18
2023-02-14T10:51:02.322Z,80.21
2023-02-14T10:52:01.888Z,78.63
2023-02-14T10:53:01.921Z,76.98
2023-02-14T10:54:01.864Z,79.76
2023-02-14T10:55:01.861Z,78.52
2023-02-14T10:56:01.854Z,77.08
2023-02-14T10:57:01.829Z,78.18
2023-02-14T10:58:01.834Z,76.25
2023-02-14T10:59:01.825Z,78.31
2023-02-14T11:00:01.820Z,77.15
2023-02-14T11:01:02.219Z,79.17
2023-02-14T11:02:01.787Z,76.15
2023-02-14T11:03:01.768Z,75.22
2023-02-14T11:04:01.885Z,75.32
2023-02-14T11:05:01.762Z,75.12
2023-02-14T11:06:01.742Z,74.67
2023-02-14T11:07:01.740Z,74.98
2023-02-14T11:08:01.734Z,76.18
2023-02-14T11:09:01.720Z,73.88
2023-02-14T11:10:01.714Z,74.57
2023-02-14T11:11:02.050Z,72.72
2023-02-14T11:12:01.689Z,71.96
2023-02-14T11:13:01.673Z,70.70
2023-02-14T11:14:01.676Z,69.87
2023-02-14T11:15:01.706Z,70.04
2023-02-14T11:16:02.021Z,68.74
2023-02-14T11:17:01.702Z,69.90
2023-02-14T11:18:01.620Z,71.66
2023-02-14T11:19:01.612Z,71.89
2023-02-14T11:20:01.621Z,72.41
2023-02-14T11:21:01.627Z,72.81
2023-02-14T11:22:01.593Z,72.51
2023-02-14T11:23:01.560Z,73.85
2023-02-14T11:24:01.566Z,74.19
2023-02-14T11:25:03.502Z,71.69
2023-02-14T11:26:01.664Z,70.46
2023-02-14T11:27:01.529Z,69.29
2023-02-14T11:28:01.509Z,70.42
2023-02-14T11:29:01.501Z,70.18
2023-02-14T11:30:01.537Z,68.21
2023-02-14T11:31:02.291Z,69.20
2023-02-14T11:32:01.508Z,67.94
2023-02-14T11:33:01.455Z,66.09
2023-02-14T11:34:03.692Z,65.96
2023-02-14T11:35:01.450Z,64.83
2023-02-14T11:36:01.848Z,64.90
2023-02-14T11:37:01.420Z,64.80
2023-02-14T11:38:01.403Z,64.26
2023-02-14T11:39:01.386Z,65.05
2023-02-14T11:40:01.464Z,62.83
2023-02-14T11:41:01.664Z,62.73
2023-02-14T11:42:01.370Z,64.77
2023-02-14T11:43:13.918Z,62.83
2023-02-14T11:44:01.346Z,63.13
2023-02-14T11:45:01.337Z,64.73
2023-02-14T11:46:01.690Z,65.24
2023-02-14T11:47:01.306Z,66.47
2023-02-14T11:48:01.311Z,65.83
2023-02-14T11:49:01.288Z,67.67
2023-02-14T11:50:01.364Z,65.18
2023-02-14T11:51:01.790Z,63.21
2023-02-14T11:52:01.266Z,62.90
2023-02-14T11:53:01.252Z,64.50
2023-02-14T11:54:01.288Z,66.24
2023-02-14T11:55:01.232Z,65.69
2023-02-14T11:56:01.594Z,64.00
2023-02-14T11:57:01.216Z,62.87
2023-02-14T11:58:01.202Z,62.13
2023-02-14T11:59:01.181Z,63.35
2023-02-14T12:00:01.193Z,61.69
2023-02-14T12:01:01.727Z,61.08
2023-02-14T12:02:01.163Z,61.56
2023-02-14T12:03:01.154Z,60.21
2023-02-14T12:04:01.237Z,60.13
2023-02-14T12:05:01.151Z,59.62
2023-02-14T12:06:01.133Z,59.52
2023-02-14T12:07:01.109Z,60.87
2023-02-14T12:08:01.102Z,61.08
2023-02-14T12:09:01.093Z,61.18
2023-02-14T12:10:01.084Z,61.38
2023-02-14T12:11:01.279Z,62.51
2023-02-14T12:12:01.085Z,62.48
2023-02-14T12:13:01.038Z,60.71
2023-02-14T12:14:01.037Z,59.46
2023-02-14T12:15:01.017Z,59.64
2023-02-14T12:16:01.094Z,58.18
2023-02-14T12:17:00.994Z,58.59
2023-02-14T12:18:01.001Z,57.75
2023-02-14T12:19:00.973Z,57.24
2023-02-14T12:20:00.999Z,56.40
2023-02-14T12:21:01.455Z,56.63
2023-02-14T12:22:00.966Z,56.73
2023-02-14T12:23:00.940Z,56.40
2023-02-14T12:24:00.920Z,56.81
2023-02-14T12:25:00.930Z,56.09
2023-02-14T12:26:00.906Z,55.99
2023-02-14T12:27:01.356Z,57.52
2023-02-14T12:28:00.875Z,56.20
2023-02-14T12:29:00.873Z,54.94
2023-02-14T12:30:00.913Z,56.40
2023-02-14T12:31:01.254Z,56.32
2023-02-14T12:32:00.898Z,56.52
2023-02-14T12:33:00.830Z,56.85
2023-02-14T12:34:00.809Z,56.73
2023-02-14T12:35:00.817Z,56.93
2023-02-14T12:36:00.796Z,57.65
2023-02-14T12:37:00.829Z,56.85
2023-02-14T12:38:04.722Z,57.67
2023-02-14T12:39:00.765Z,56.35
2023-02-14T12:40:00.754Z,57.14
2023-02-14T12:41:01.222Z,57.01
2023-02-14T12:42:00.734Z,56.07
2023-02-14T12:43:00.730Z,55.63
2023-02-14T12:44:00.708Z,55.60
2023-02-14T12:45:00.707Z,54.90
2023-02-14T12:46:00.993Z,53.57
2023-02-14T12:47:00.686Z,53.67
2023-02-14T12:48:00.673Z,54.41
2023-02-14T12:49:00.673Z,54.82
2023-02-14T12:50:00.664Z,54.11
2023-02-14T12:51:01.196Z,54.13
2023-02-14T12:52:00.629Z,55.53